sensor_id;sensor_type;location;lat;lon;timestamp;P1;durP1;ratioP1;P2;durP2;ratioP2
74243;SDS011;62600;55.732;37.662;2022-08-14T15:33:42;8.30;;;6.15;;
74243;SDS011;62600;55.732;37.662;2022-08-14T15:39:05;7.07;;;5.55;;
74243;SDS011;62600;55.732;37.662;2022-08-14T15:41:31;6.90;;;6.18;;
74243;SDS011;62600;55.732;37.662;2022-08-14T15:43:58;8.52;;;6.20;;
74243;SDS011;62600;55.732;37.662;2022-08-14T15:46:24;6.03;;;5.43;;
74243;SDS011;62600;55.732;37.662;2022-08-14T15:48:50;7.68;;;6.10;;
74243;SDS011;62600;55.732;37.662;2022-08-14T15:51:15;6.78;;;6.10;;
74243;SDS011;62600;55.732;37.662;2022-08-14T15:53:41;10.68;;;6.25;;
74243;SDS011;62600;55.732;37.662;2022-08-14T15:56:06;7.70;;;6.43;;
74243;SDS011;62600;55.732;37.662;2022-08-14T15:58:32;7.10;;;5.70;;
74243;SDS011;62600;55.732;37.662;2022-08-14T16:00:58;6.45;;;5.38;;
74243;SDS011;62600;55.732;37.662;2022-08-14T16:03:42;7.63;;;6.63;;
74243;SDS011;62600;55.732;37.662;2022-08-14T16:06:09;7.57;;;5.70;;
74243;SDS011;62600;55.732;37.662;2022-08-14T16:08:36;8.35;;;6.75;;
74243;SDS011;62600;55.732;37.662;2022-08-14T16:11:04;7.28;;;6.63;;
74243;SDS011;62600;55.732;37.662;2022-08-14T16:13:31;7.53;;;5.70;;
74243;SDS011;62600;55.732;37.662;2022-08-14T16:16:02;8.30;;;6.60;;
74243;SDS011;62600;55.732;37.662;2022-08-14T16:18:29;6.72;;;5.70;;
74243;SDS011;62600;55.732;37.662;2022-08-14T16:20:56;8.90;;;6.10;;
74243;SDS011;62600;55.732;37.662;2022-08-14T16:23:24;8.93;;;6.07;;
74243;SDS011;62600;55.732;37.662;2022-08-14T16:25:51;6.25;;;5.65;;
74243;SDS011;62600;55.732;37.662;2022-08-14T16:28:25;8.90;;;5.78;;
74243;SDS011;62600;55.732;37.662;2022-08-14T16:30:52;7.70;;;6.18;;
74243;SDS011;62600;55.732;37.662;2022-08-14T16:33:18;7.55;;;5.93;;
74243;SDS011;62600;55.732;37.662;2022-08-14T16:35:44;9.10;;;6.35;;
74243;SDS011;62600;55.732;37.662;2022-08-14T16:38:16;8.50;;;6.60;;
74243;SDS011;62600;55.732;37.662;2022-08-14T16:40:42;10.38;;;6.70;;
74243;SDS011;62600;55.732;37.662;2022-08-14T16:43:09;7.70;;;6.85;;
74243;SDS011;62600;55.732;37.662;2022-08-14T16:45:35;7.07;;;6.38;;
74243;SDS011;62600;55.732;37.662;2022-08-14T16:48:04;7.22;;;6.20;;
74243;SDS011;62600;55.732;37.662;2022-08-14T16:50:33;10.05;;;7.30;;
74243;SDS011;62600;55.732;37.662;2022-08-14T16:53:00;8.32;;;6.30;;
74243;SDS011;62600;55.732;37.662;2022-08-14T16:55:27;6.63;;;6.00;;
74243;SDS011;62600;55.732;37.662;2022-08-14T16:57:53;7.32;;;6.10;;
74243;SDS011;62600;55.732;37.662;2022-08-14T17:00:24;7.88;;;6.13;;
74243;SDS011;62600;55.732;37.662;2022-08-14T17:02:52;9.80;;;6.28;;
74243;SDS011;62600;55.732;37.662;2022-08-14T17:05:26;8.00;;;6.57;;
74243;SDS011;62600;55.732;37.662;2022-08-14T17:15:45;9.90;;;8.48;;
74243;SDS011;62600;55.732;37.662;2022-08-14T17:21:24;10.25;;;6.88;;
74243;SDS011;62600;55.732;37.662;2022-08-14T17:26:30;8.32;;;6.72;;
74243;SDS011;62600;55.732;37.662;2022-08-14T17:33:56;8.43;;;6.70;;
74243;SDS011;62600;55.732;37.662;2022-08-14T17:36:23;9.88;;;6.47;;
74243;SDS011;62600;55.732;37.662;2022-08-14T17:41:39;9.65;;;7.75;;
74243;SDS011;62600;55.732;37.662;2022-08-14T17:44:26;8.55;;;6.68;;
74243;SDS011;62600;55.732;37.662;2022-08-14T17:46:54;10.50;;;7.40;;
74243;SDS011;62600;55.732;37.662;2022-08-14T17:49:24;17.23;;;12.82;;
74243;SDS011;62600;55.732;37.662;2022-08-14T17:57:04;11.35;;;8.13;;
74243;SDS011;62600;55.732;37.662;2022-08-14T17:59:34;11.30;;;8.77;;
74243;SDS011;62600;55.732;37.662;2022-08-14T18:02:01;10.32;;;8.32;;
74243;SDS011;62600;55.732;37.662;2022-08-14T18:04:28;16.42;;;8.48;;
74243;SDS011;62600;55.732;37.662;2022-08-14T18:06:56;11.90;;;8.98;;
74243;SDS011;62600;55.732;37.662;2022-08-14T18:09:22;13.27;;;8.88;;
74243;SDS011;62600;55.732;37.662;2022-08-14T18:11:49;12.60;;;9.70;;
74243;SDS011;62600;55.732;37.662;2022-08-14T18:14:22;12.95;;;8.60;;
74243;SDS011;62600;55.732;37.662;2022-08-14T18:16:49;15.07;;;8.88;;
74243;SDS011;62600;55.732;37.662;2022-08-14T18:19:19;14.48;;;9.15;;
74243;SDS011;62600;55.732;37.662;2022-08-14T18:21:47;18.42;;;8.85;;
74243;SDS011;62600;55.732;37.662;2022-08-14T18:24:13;15.02;;;10.15;;
74243;SDS011;62600;55.732;37.662;2022-08-14T18:26:39;15.52;;;9.23;;
74243;SDS011;62600;55.732;37.662;2022-08-14T18:29:07;18.60;;;11.25;;
74243;SDS011;62600;55.732;37.662;2022-08-14T18:31:34;14.65;;;9.80;;
74243;SDS011;62600;55.732;37.662;2022-08-14T18:36:54;17.10;;;10.23;;
74243;SDS011;62600;55.732;37.662;2022-08-14T18:39:33;16.70;;;10.23;;
74243;SDS011;62600;55.732;37.662;2022-08-14T18:52:18;15.73;;;9.57;;
74243;SDS011;62600;55.732;37.662;2022-08-14T18:54:44;11.65;;;9.20;;
74243;SDS011;62600;55.732;37.662;2022-08-14T18:57:10;17.00;;;8.95;;
74243;SDS011;62600;55.732;37.662;2022-08-14T18:59:40;16.38;;;8.43;;
74243;SDS011;62600;55.732;37.662;2022-08-14T19:04:51;12.07;;;8.30;;
74243;SDS011;62600;55.732;37.662;2022-08-14T19:07:18;11.50;;;8.60;;
74243;SDS011;62600;55.732;37.662;2022-08-14T19:09:51;10.20;;;8.45;;
74243;SDS011;62600;55.732;37.662;2022-08-14T19:15:21;17.52;;;9.90;;
74243;SDS011;62600;55.732;37.662;2022-08-14T19:17:48;16.23;;;10.10;;
74243;SDS011;62600;55.732;37.662;2022-08-14T19:20:14;16.17;;;8.88;;
74243;SDS011;62600;55.732;37.662;2022-08-14T19:22:41;17.20;;;9.25;;
74243;SDS011;62600;55.732;37.662;2022-08-14T19:25:08;11.02;;;8.85;;
74243;SDS011;62600;55.732;37.662;2022-08-14T19:27:38;15.90;;;8.82;;
74243;SDS011;62600;55.732;37.662;2022-08-14T19:32:38;11.80;;;9.15;;
74243;SDS011;62600;55.732;37.662;2022-08-14T19:35:49;11.07;;;7.95;;
74243;SDS011;62600;55.732;37.662;2022-08-14T19:37:52;13.15;;;8.60;;
74243;SDS011;62600;55.732;37.662;2022-08-14T19:40:33;9.70;;;7.97;;
74243;SDS011;62600;55.732;37.662;2022-08-14T19:43:03;12.05;;;8.27;;
74243;SDS011;62600;55.732;37.662;2022-08-14T19:45:28;14.30;;;9.25;;
74243;SDS011;62600;55.732;37.662;2022-08-14T19:47:54;12.88;;;8.20;;
74243;SDS011;62600;55.732;37.662;2022-08-14T19:50:24;15.27;;;8.77;;
74243;SDS011;62600;55.732;37.662;2022-08-14T19:55:56;10.73;;;7.60;;
74243;SDS011;62600;55.732;37.662;2022-08-14T19:58:42;11.10;;;7.68;;
74243;SDS011;62600;55.732;37.662;2022-08-14T20:01:08;14.88;;;7.75;;
74243;SDS011;62600;55.732;37.662;2022-08-14T20:03:53;12.52;;;7.53;;
74243;SDS011;62600;55.732;37.662;2022-08-14T20:06:19;14.05;;;8.00;;
74243;SDS011;62600;55.732;37.662;2022-08-14T20:08:45;12.57;;;7.85;;
74243;SDS011;62600;55.732;37.662;2022-08-14T20:11:23;15.15;;;8.68;;
74243;SDS011;62600;55.732;37.662;2022-08-14T20:13:55;13.43;;;7.80;;
74243;SDS011;62600;55.732;37.662;2022-08-14T20:16:27;10.48;;;8.15;;
74243;SDS011;62600;55.732;37.662;2022-08-14T20:22:03;14.70;;;8.15;;
74243;SDS011;62600;55.732;37.662;2022-08-14T20:24:43;10.00;;;7.32;;
74243;SDS011;62600;55.732;37.662;2022-08-14T20:29:42;12.20;;;8.10;;
74243;SDS011;62600;55.732;37.662;2022-08-14T20:32:11;11.35;;;8.20;;
74243;SDS011;62600;55.732;37.662;2022-08-14T20:34:38;9.40;;;8.40;;
74243;SDS011;62600;55.732;37.662;2022-08-14T20:39:36;11.32;;;7.93;;
74243;SDS011;62600;55.732;37.662;2022-08-14T20:42:10;16.02;;;8.75;;
74243;SDS011;62600;55.732;37.662;2022-08-14T20:45:01;12.32;;;8.00;;
74243;SDS011;62600;55.732;37.662;2022-08-14T20:48:04;12.80;;;9.45;;
74243;SDS011;62600;55.732;37.662;2022-08-14T20:50:30;15.70;;;9.07;;
74243;SDS011;62600;55.732;37.662;2022-08-14T20:53:00;10.20;;;9.13;;
74243;SDS011;62600;55.732;37.662;2022-08-14T20:55:27;9.82;;;8.77;;
74243;SDS011;62600;55.732;37.662;2022-08-14T20:58:01;13.65;;;8.73;;
74243;SDS011;62600;55.732;37.662;2022-08-14T21:05:51;9.18;;;8.27;;
74243;SDS011;62600;55.732;37.662;2022-08-14T21:08:17;9.07;;;8.18;;
74243;SDS011;62600;55.732;37.662;2022-08-14T21:10:42;14.50;;;8.77;;
74243;SDS011;62600;55.732;37.662;2022-08-14T21:13:09;14.05;;;9.00;;
74243;SDS011;62600;55.732;37.662;2022-08-14T21:15:39;13.52;;;8.98;;
74243;SDS011;62600;55.732;37.662;2022-08-14T21:18:05;14.13;;;7.93;;
74243;SDS011;62600;55.732;37.662;2022-08-14T21:20:31;13.90;;;9.02;;
74243;SDS011;62600;55.732;37.662;2022-08-14T21:23:00;12.90;;;8.40;;
74243;SDS011;62600;55.732;37.662;2022-08-14T21:25:28;14.13;;;8.60;;
74243;SDS011;62600;55.732;37.662;2022-08-14T21:27:55;11.45;;;8.25;;
74243;SDS011;62600;55.732;37.662;2022-08-14T21:30:24;11.70;;;8.75;;
74243;SDS011;62600;55.732;37.662;2022-08-14T21:35:16;13.27;;;8.25;;
74243;SDS011;62600;55.732;37.662;2022-08-14T21:37:44;15.70;;;9.00;;
74243;SDS011;62600;55.732;37.662;2022-08-14T21:40:14;12.45;;;8.25;;
74243;SDS011;62600;55.732;37.662;2022-08-14T21:42:42;15.57;;;8.77;;
74243;SDS011;62600;55.732;37.662;2022-08-14T21:45:08;11.68;;;8.13;;
74243;SDS011;62600;55.732;37.662;2022-08-14T21:47:35;14.55;;;8.50;;
74243;SDS011;62600;55.732;37.662;2022-08-14T21:50:00;11.07;;;7.57;;
74243;SDS011;62600;55.732;37.662;2022-08-14T21:52:30;13.90;;;8.98;;
74243;SDS011;62600;55.732;37.662;2022-08-14T21:55:00;11.40;;;9.02;;
74243;SDS011;62600;55.732;37.662;2022-08-14T21:57:26;14.35;;;9.35;;
74243;SDS011;62600;55.732;37.662;2022-08-14T21:59:56;12.57;;;8.73;;
74243;SDS011;62600;55.732;37.662;2022-08-14T22:02:26;13.43;;;10.40;;
74243;SDS011;62600;55.732;37.662;2022-08-14T22:04:51;13.10;;;9.10;;
74243;SDS011;62600;55.732;37.662;2022-08-14T22:07:17;12.13;;;9.60;;
74243;SDS011;62600;55.732;37.662;2022-08-14T22:09:42;13.68;;;9.57;;
74243;SDS011;62600;55.732;37.662;2022-08-14T22:12:09;17.60;;;9.27;;
74243;SDS011;62600;55.732;37.662;2022-08-14T22:14:35;14.20;;;9.88;;
74243;SDS011;62600;55.732;37.662;2022-08-14T22:17:02;13.38;;;9.25;;
74243;SDS011;62600;55.732;37.662;2022-08-14T22:19:29;15.32;;;10.07;;
74243;SDS011;62600;55.732;37.662;2022-08-14T22:21:54;14.95;;;9.60;;
74243;SDS011;62600;55.732;37.662;2022-08-14T22:24:20;15.88;;;10.25;;
74243;SDS011;62600;55.732;37.662;2022-08-14T22:26:46;14.57;;;9.48;;
74243;SDS011;62600;55.732;37.662;2022-08-14T22:29:13;12.63;;;9.65;;
74243;SDS011;62600;55.732;37.662;2022-08-14T22:31:40;17.30;;;10.50;;
74243;SDS011;62600;55.732;37.662;2022-08-14T22:34:08;19.73;;;10.02;;
74243;SDS011;62600;55.732;37.662;2022-08-14T22:36:35;18.42;;;10.43;;
74243;SDS011;62600;55.732;37.662;2022-08-14T22:41:47;19.92;;;10.68;;
74243;SDS011;62600;55.732;37.662;2022-08-14T22:44:25;21.80;;;10.48;;
74243;SDS011;62600;55.732;37.662;2022-08-14T22:46:54;18.98;;;10.15;;
74243;SDS011;62600;55.732;37.662;2022-08-14T22:49:21;15.70;;;9.27;;
74243;SDS011;62600;55.732;37.662;2022-08-14T22:51:48;14.95;;;9.52;;
74243;SDS011;62600;55.732;37.662;2022-08-14T22:54:14;18.50;;;9.50;;
74243;SDS011;62600;55.732;37.662;2022-08-14T22:56:40;12.27;;;9.52;;
74243;SDS011;62600;55.732;37.662;2022-08-14T22:59:06;14.70;;;9.10;;
74243;SDS011;62600;55.732;37.662;2022-08-14T23:01:35;11.30;;;8.52;;
74243;SDS011;62600;55.732;37.662;2022-08-14T23:04:06;13.60;;;9.05;;
74243;SDS011;62600;55.732;37.662;2022-08-14T23:06:32;14.55;;;8.70;;
74243;SDS011;62600;55.732;37.662;2022-08-14T23:08:57;13.80;;;9.60;;
74243;SDS011;62600;55.732;37.662;2022-08-14T23:13:49;19.67;;;8.90;;
74243;SDS011;62600;55.732;37.662;2022-08-14T23:16:16;12.55;;;9.45;;
74243;SDS011;62600;55.732;37.662;2022-08-14T23:18:42;14.15;;;9.02;;
74243;SDS011;62600;55.732;37.662;2022-08-14T23:21:10;13.98;;;8.98;;
74243;SDS011;62600;55.732;37.662;2022-08-14T23:23:38;13.18;;;9.90;;
74243;SDS011;62600;55.732;37.662;2022-08-14T23:26:04;16.10;;;8.82;;
74243;SDS011;62600;55.732;37.662;2022-08-14T23:28:32;15.27;;;8.98;;
74243;SDS011;62600;55.732;37.662;2022-08-14T23:31:04;15.93;;;9.13;;
74243;SDS011;62600;55.732;37.662;2022-08-14T23:33:30;15.65;;;9.57;;
74243;SDS011;62600;55.732;37.662;2022-08-14T23:35:57;12.30;;;9.13;;
74243;SDS011;62600;55.732;37.662;2022-08-14T23:38:22;14.05;;;9.48;;
74243;SDS011;62600;55.732;37.662;2022-08-14T23:40:49;11.93;;;8.75;;
74243;SDS011;62600;55.732;37.662;2022-08-14T23:43:15;13.02;;;9.13;;
74243;SDS011;62600;55.732;37.662;2022-08-14T23:45:42;11.55;;;8.85;;
74243;SDS011;62600;55.732;37.662;2022-08-14T23:48:11;12.82;;;9.27;;
74243;SDS011;62600;55.732;37.662;2022-08-14T23:50:39;10.75;;;9.35;;
74243;SDS011;62600;55.732;37.662;2022-08-14T23:53:13;12.85;;;9.23;;
74243;SDS011;62600;55.732;37.662;2022-08-14T23:55:41;10.50;;;9.20;;
74243;SDS011;62600;55.732;37.662;2022-08-14T23:58:07;10.23;;;9.02;;
